createdAt,value
2023-03-22T00:00:37.310Z,29.50
2023-03-22T00:01:54.433Z,25.80
2023-03-22T00:02:57.368Z,27.00
2023-03-22T00:04:00.497Z,28.90
2023-03-22T00:05:03.400Z,26.40
2023-03-22T00:06:06.706Z,27.30
2023-03-22T00:07:09.473Z,35.50
2023-03-22T00:08:13.506Z,28.70
2023-03-22T00:09:16.299Z,26.50
2023-03-22T00:10:19.035Z,27.70
2023-03-22T00:11:24.338Z,32.60
2023-03-22T00:12:27.075Z,27.30
2023-03-22T00:13:30.393Z,29.20
2023-03-22T00:14:33.214Z,28.90
2023-03-22T00:15:36.527Z,28.00
2023-03-22T00:16:39.606Z,29.10
2023-03-22T00:17:42.365Z,30.20
2023-03-22T00:18:45.535Z,31.60
2023-03-22T00:19:49.616Z,31.60
2023-03-22T00:20:57.443Z,28.50
2023-03-22T00:22:01.224Z,29.80
2023-03-22T00:23:04.051Z,29.60
2023-03-22T00:24:07.228Z,27.10
2023-03-22T00:25:10.856Z,29.70
2023-03-22T00:26:15.483Z,30.80
2023-03-22T00:27:18.614Z,30.30
2023-03-22T00:28:21.887Z,31.40
2023-03-22T00:29:24.632Z,29.90
2023-03-22T00:30:29.323Z,29.70
2023-03-22T00:31:32.159Z,30.50
2023-03-22T00:32:36.456Z,30.70
2023-03-22T00:33:39.335Z,31.10
2023-03-22T00:34:42.116Z,32.40
2023-03-22T00:35:53.110Z,27.70
2023-03-22T00:36:56.689Z,31.10
2023-03-22T00:38:14.173Z,34.20
2023-03-22T00:39:18.024Z,30.60
2023-03-22T00:40:20.805Z,28.90
2023-03-22T00:41:24.396Z,29.90
2023-03-22T00:42:27.449Z,29.80
2023-03-22T00:43:30.194Z,33.40
2023-03-22T00:44:33.118Z,32.40
2023-03-22T00:45:40.975Z,32.30
2023-03-22T00:46:43.769Z,32.60
2023-03-22T00:47:46.590Z,32.90
2023-03-22T00:48:49.750Z,31.10
2023-03-22T00:49:52.534Z,30.20
2023-03-22T00:50:55.322Z,31.60
2023-03-22T00:51:58.254Z,31.40
2023-03-22T00:53:01.319Z,34.60
2023-03-22T00:54:04.150Z,30.60
2023-03-22T00:55:07.902Z,32.10
2023-03-22T00:56:16.083Z,34.50
2023-03-22T00:57:41.607Z,28.10
2023-03-22T00:58:44.431Z,34.00
2023-03-22T00:59:47.359Z,32.50
2023-03-22T01:00:50.391Z,31.10
2023-03-22T01:01:53.266Z,32.90
2023-03-22T01:02:59.832Z,30.40
2023-03-22T01:04:03.096Z,36.70
2023-03-22T01:05:07.531Z,32.00
2023-03-22T01:06:11.485Z,31.10
2023-03-22T01:07:21.569Z,30.60
2023-03-22T01:08:24.532Z,33.00
2023-03-22T01:09:29.629Z,33.60
2023-03-22T01:10:32.443Z,31.50
2023-03-22T01:11:35.341Z,56.90
2023-03-22T01:12:38.926Z,90.50
2023-03-22T01:13:41.993Z,131.80
2023-03-22T01:14:45.271Z,86.20
2023-03-22T01:15:51.041Z,68.10
2023-03-22T01:16:57.382Z,53.70
2023-03-22T01:18:00.685Z,49.50
2023-03-22T01:19:03.665Z,91.30
2023-03-22T01:20:07.886Z,38.30
2023-03-22T01:21:10.703Z,38.40
2023-03-22T01:22:13.686Z,46.00
2023-03-22T01:23:16.632Z,48.50
2023-03-22T01:24:19.601Z,30.10
2023-03-22T01:25:22.456Z,32.00
2023-03-22T01:26:25.227Z,33.90
2023-03-22T01:27:28.033Z,31.50
2023-03-22T01:28:31.250Z,30.00
2023-03-22T01:29:35.436Z,29.50
2023-03-22T01:30:41.958Z,33.40
2023-03-22T01:31:45.043Z,29.30
2023-03-22T01:32:48.657Z,31.50
2023-03-22T01:33:53.038Z,27.40
2023-03-22T01:34:57.624Z,31.30
2023-03-22T01:36:01.941Z,30.30
2023-03-22T01:37:05.361Z,32.70
2023-03-22T01:38:08.860Z,28.50
2023-03-22T01:39:15.321Z,28.20
2023-03-22T01:40:19.132Z,31.00
2023-03-22T01:41:22.996Z,35.00
2023-03-22T01:42:27.016Z,29.80
2023-03-22T01:43:30.573Z,29.70
2023-03-22T01:44:33.878Z,29.00
2023-03-22T01:45:47.509Z,28.70
2023-03-22T01:46:51.489Z,31.40
2023-03-22T01:48:15.719Z,32.40
2023-03-22T01:49:29.224Z,31.90
2023-03-22T01:50:32.464Z,30.30
2023-03-22T01:51:35.621Z,30.40
2023-03-22T01:53:00.510Z,33.90
2023-03-22T01:54:10.823Z,29.30
2023-03-22T01:55:13.977Z,27.60
2023-03-22T01:56:25.601Z,28.30
2023-03-22T01:57:29.513Z,29.10
2023-03-22T01:58:37.135Z,29.20
2023-03-22T01:59:42.983Z,29.70
2023-03-22T02:00:52.965Z,29.90
2023-03-22T02:02:22.290Z,28.60
2023-03-22T02:04:00.037Z,31.00
2023-03-22T02:05:04.215Z,29.10
2023-03-22T02:06:07.610Z,32.50
2023-03-22T02:07:15.808Z,32.50
2023-03-22T02:09:41.358Z,29.00
2023-03-22T02:12:13.417Z,30.90
2023-03-22T02:14:13.065Z,29.60
2023-03-22T02:15:50.842Z,31.20
2023-03-22T02:18:16.556Z,30.80
2023-03-22T02:19:30.633Z,31.70
2023-03-22T02:20:55.270Z,31.10
2023-03-22T02:22:30.593Z,29.70
2023-03-22T02:24:05.537Z,31.40
2023-03-22T02:25:20.168Z,30.50
2023-03-22T02:26:44.130Z,28.30
2023-03-22T02:28:08.113Z,32.20
2023-03-22T02:29:45.165Z,32.30
2023-03-22T02:31:29.005Z,30.30
2023-03-22T02:32:43.726Z,29.60
2023-03-22T02:33:55.826Z,32.00
2023-03-22T02:35:33.507Z,32.70
2023-03-22T02:37:01.769Z,33.20
2023-03-22T02:38:38.593Z,33.20
2023-03-22T02:40:10.686Z,32.20
2023-03-22T02:41:35.910Z,31.90
2023-03-22T02:42:55.747Z,34.70
2023-03-22T02:45:14.369Z,36.60
2023-03-22T02:46:32.767Z,31.40
2023-03-22T02:47:38.697Z,32.90
2023-03-22T02:48:47.552Z,35.40
2023-03-22T02:50:03.635Z,32.10
2023-03-22T02:51:15.528Z,36.60
2023-03-22T02:52:44.860Z,32.10
2023-03-22T02:54:03.577Z,34.60
2023-03-22T02:56:33.731Z,34.40
2023-03-22T02:57:52.776Z,44.50
2023-03-22T02:58:59.541Z,70.60
2023-03-22T03:00:10.469Z,45.70
2023-03-22T03:01:20.084Z,62.40
2023-03-22T03:03:30.541Z,41.40
2023-03-22T03:04:37.950Z,39.20
2023-03-22T03:05:48.712Z,38.40
2023-03-22T03:06:55.061Z,43.30
2023-03-22T03:08:02.513Z,41.10
2023-03-22T03:09:06.480Z,35.20
2023-03-22T03:10:11.488Z,40.90
2023-03-22T03:11:14.293Z,35.50
2023-03-22T03:12:23.301Z,37.10
2023-03-22T03:13:27.327Z,35.80
2023-03-22T03:14:32.832Z,34.10
2023-03-22T03:15:39.503Z,33.20
2023-03-22T03:16:42.548Z,32.00
2023-03-22T03:17:51.755Z,32.10
2023-03-22T03:19:02.848Z,35.20
2023-03-22T03:20:42.629Z,35.30
2023-03-22T03:22:09.672Z,31.90
2023-03-22T03:23:24.510Z,36.00
2023-03-22T03:24:37.344Z,32.50
2023-03-22T03:26:04.549Z,32.90
2023-03-22T03:27:10.806Z,31.40
2023-03-22T03:28:38.533Z,34.70
2023-03-22T03:29:48.953Z,31.60
2023-03-22T03:31:03.588Z,34.50
2023-03-22T03:32:15.545Z,34.30
2023-03-22T03:33:22.309Z,35.20
2023-03-22T03:34:34.012Z,34.00
2023-03-22T03:35:46.704Z,37.10
2023-03-22T03:37:02.975Z,34.30
2023-03-22T03:38:13.463Z,34.60
2023-03-22T03:39:18.841Z,38.20
2023-03-22T03:40:29.058Z,37.70
2023-03-22T03:41:34.671Z,34.90
2023-03-22T03:42:41.473Z,35.80
2023-03-22T03:43:46.890Z,36.70
2023-03-22T03:44:50.023Z,36.20
2023-03-22T03:45:54.335Z,35.60
2023-03-22T03:46:57.788Z,37.00
2023-03-22T03:48:05.066Z,36.30
2023-03-22T03:49:10.395Z,38.00
2023-03-22T03:50:16.342Z,37.30
2023-03-22T03:51:19.441Z,37.20
2023-03-22T03:52:24.644Z,37.20
2023-03-22T03:53:28.774Z,36.60
2023-03-22T03:54:31.869Z,34.60
2023-03-22T03:55:34.838Z,39.60
2023-03-22T03:56:37.603Z,35.10
2023-03-22T03:57:40.487Z,38.60
2023-03-22T03:58:43.286Z,33.20
2023-03-22T03:59:46.407Z,36.60
2023-03-22T04:00:57.464Z,34.10
2023-03-22T04:02:23.958Z,37.70
2023-03-22T04:03:27.766Z,36.20
2023-03-22T04:04:48.486Z,36.20
2023-03-22T04:05:51.495Z,34.50
2023-03-22T04:07:00.622Z,35.50
2023-03-22T04:08:05.376Z,35.60
2023-03-22T04:09:09.104Z,38.10
2023-03-22T04:10:15.479Z,34.50
2023-03-22T04:11:18.428Z,37.20
2023-03-22T04:12:23.348Z,36.20
2023-03-22T04:13:44.634Z,34.40
2023-03-22T04:14:50.801Z,34.30
2023-03-22T04:15:58.097Z,37.30
2023-03-22T04:17:01.308Z,34.20
2023-03-22T04:18:07.138Z,34.80
2023-03-22T04:19:10.070Z,37.00
2023-03-22T04:20:14.039Z,37.10
2023-03-22T04:21:17.003Z,34.00
2023-03-22T04:22:25.311Z,32.30
2023-03-22T04:23:28.168Z,35.60
2023-03-22T04:24:31.090Z,32.60
2023-03-22T04:25:33.999Z,35.80
2023-03-22T04:26:43.372Z,33.60
2023-03-22T04:28:13.736Z,35.40
2023-03-22T04:29:16.642Z,35.60
2023-03-22T04:30:24.719Z,33.10
2023-03-22T04:31:37.613Z,35.20
2023-03-22T04:32:51.553Z,38.40
2023-03-22T04:33:56.834Z,34.50
2023-03-22T04:35:06.668Z,33.10
2023-03-22T04:36:10.387Z,33.80
2023-03-22T04:37:27.592Z,30.40
2023-03-22T04:39:05.954Z,34.10
2023-03-22T04:40:16.444Z,33.50
2023-03-22T04:41:31.517Z,31.10
2023-03-22T04:42:34.894Z,32.40
2023-03-22T04:43:50.956Z,32.10
2023-03-22T04:44:53.927Z,31.10
2023-03-22T04:45:58.412Z,32.80
2023-03-22T04:47:04.940Z,35.60
2023-03-22T04:48:10.552Z,35.30
2023-03-22T04:49:13.563Z,31.80
2023-03-22T04:50:17.329Z,32.60
2023-03-22T04:51:25.546Z,32.20
2023-03-22T04:52:41.610Z,30.80
2023-03-22T04:53:44.999Z,35.10
2023-03-22T04:54:48.198Z,30.90
2023-03-22T04:55:50.950Z,30.70
2023-03-22T04:56:54.065Z,30.50
2023-03-22T04:57:58.615Z,31.50
2023-03-22T04:59:01.486Z,32.40
2023-03-22T05:00:08.410Z,31.20
2023-03-22T05:01:13.675Z,31.00
2023-03-22T05:02:17.223Z,29.00
2023-03-22T05:03:21.644Z,32.80
2023-03-22T05:04:27.364Z,28.90
2023-03-22T05:06:39.506Z,28.80
2023-03-22T05:07:47.680Z,30.10
2023-03-22T05:08:50.650Z,29.10
2023-03-22T05:09:54.671Z,30.40
2023-03-22T05:10:59.718Z,28.80
2023-03-22T05:12:02.548Z,28.60
2023-03-22T05:13:21.547Z,27.80
2023-03-22T05:14:24.930Z,27.40
2023-03-22T05:15:28.187Z,26.70
2023-03-22T05:16:31.009Z,26.90
2023-03-22T05:17:33.805Z,28.10
2023-03-22T05:18:42.478Z,30.00
2023-03-22T05:19:45.865Z,26.50
2023-03-22T05:20:48.767Z,26.00
2023-03-22T05:21:58.522Z,24.80
2023-03-22T05:23:10.991Z,27.00
2023-03-22T05:24:14.646Z,25.40
2023-03-22T05:25:19.549Z,25.10
2023-03-22T05:26:24.524Z,28.50
2023-03-22T05:27:31.760Z,25.90
2023-03-22T05:28:54.663Z,26.90
2023-03-22T05:30:14.415Z,26.00
2023-03-22T05:31:23.431Z,25.50
2023-03-22T05:32:33.049Z,24.50
2023-03-22T05:33:36.178Z,24.10
2023-03-22T05:34:42.746Z,24.40
2023-03-22T05:35:54.161Z,24.00
2023-03-22T05:36:58.246Z,23.80
2023-03-22T05:39:16.461Z,25.70
2023-03-22T05:40:19.393Z,22.80
2023-03-22T05:41:23.093Z,24.40
2023-03-22T05:42:26.945Z,23.30
2023-03-22T05:43:29.829Z,22.20
2023-03-22T05:44:32.637Z,22.60
2023-03-22T05:45:42.859Z,24.50
2023-03-22T05:47:00.743Z,25.00
2023-03-22T05:48:10.785Z,22.50
2023-03-22T05:49:13.566Z,22.30
2023-03-22T05:50:19.612Z,21.80
2023-03-22T05:51:25.816Z,23.90
2023-03-22T05:52:29.720Z,24.20
2023-03-22T05:54:04.513Z,21.60
2023-03-22T05:55:14.240Z,24.80
2023-03-22T05:56:17.853Z,26.00
2023-03-22T05:57:21.675Z,21.10
2023-03-22T05:58:25.109Z,22.90
2023-03-22T05:59:28.572Z,20.60
2023-03-22T06:00:35.791Z,22.90
2023-03-22T06:02:04.797Z,20.30
2023-03-22T06:03:08.239Z,20.30
2023-03-22T06:04:14.573Z,19.50
2023-03-22T06:05:26.451Z,21.40
2023-03-22T06:06:29.376Z,18.40
2023-03-22T06:07:40.660Z,16.40
2023-03-22T06:08:57.845Z,18.80
2023-03-22T06:10:07.110Z,17.70
2023-03-22T06:11:10.050Z,16.70
2023-03-22T06:12:15.518Z,19.20
2023-03-22T06:13:21.221Z,16.80
2023-03-22T06:14:25.185Z,15.50
2023-03-22T06:15:54.183Z,16.50
2023-03-22T06:17:00.939Z,17.90
2023-03-22T06:18:03.750Z,18.50
2023-03-22T06:19:11.157Z,16.00
2023-03-22T06:20:15.549Z,16.90
2023-03-22T06:21:24.132Z,16.10
2023-03-22T06:22:27.011Z,20.10
2023-03-22T06:23:29.889Z,16.70
2023-03-22T06:24:33.202Z,16.10
2023-03-22T06:25:36.793Z,19.10
2023-03-22T06:26:40.390Z,16.70
2023-03-22T06:27:43.311Z,16.20
2023-03-22T06:28:46.678Z,13.80
2023-03-22T06:29:51.073Z,16.90
2023-03-22T06:30:56.391Z,16.70
2023-03-22T06:32:20.711Z,15.30
2023-03-22T06:33:23.632Z,17.20
2023-03-22T06:34:34.027Z,15.60
2023-03-22T06:35:37.183Z,13.70
2023-03-22T06:36:42.487Z,15.30
2023-03-22T06:37:52.902Z,16.40
2023-03-22T06:38:57.437Z,16.40
2023-03-22T06:40:00.256Z,18.60
2023-03-22T06:41:03.293Z,15.10
2023-03-22T06:42:06.435Z,15.20
2023-03-22T06:43:09.802Z,15.70
2023-03-22T06:44:14.902Z,14.40
2023-03-22T06:45:33.502Z,15.50
2023-03-22T06:46:37.175Z,15.00
2023-03-22T06:47:46.554Z,18.20
2023-03-22T06:48:59.924Z,18.60
2023-03-22T06:50:02.944Z,16.10
2023-03-22T06:51:25.733Z,18.50
2023-03-22T06:52:29.152Z,14.40
2023-03-22T06:53:33.662Z,15.10
2023-03-22T06:54:36.697Z,13.40
2023-03-22T06:55:40.624Z,12.60
2023-03-22T06:56:48.184Z,15.20
2023-03-22T06:57:51.058Z,12.60
2023-03-22T06:58:54.807Z,15.40
2023-03-22T06:59:57.571Z,14.20
2023-03-22T07:01:01.016Z,13.50
2023-03-22T07:02:04.604Z,13.50
2023-03-22T07:03:07.686Z,12.70
2023-03-22T07:04:33.281Z,13.80
2023-03-22T07:05:36.063Z,12.80
2023-03-22T07:06:38.938Z,12.80
2023-03-22T07:07:41.754Z,15.80
2023-03-22T07:08:44.598Z,15.50
2023-03-22T07:09:48.168Z,14.80
2023-03-22T07:10:51.868Z,15.00
2023-03-22T07:11:57.370Z,13.90
2023-03-22T07:13:00.481Z,13.90
2023-03-22T07:14:03.590Z,14.30
2023-03-22T07:15:24.331Z,13.00
2023-03-22T07:16:35.872Z,14.30
2023-03-22T07:17:41.367Z,14.80
2023-03-22T07:18:44.268Z,16.20
2023-03-22T07:19:47.039Z,12.80
2023-03-22T07:20:51.007Z,17.00
2023-03-22T07:21:53.801Z,14.50
2023-03-22T07:22:57.350Z,16.20
2023-03-22T07:24:01.229Z,16.50
2023-03-22T07:25:05.406Z,16.30
2023-03-22T07:26:08.669Z,15.20
2023-03-22T07:27:14.418Z,14.00
2023-03-22T07:28:17.210Z,15.90
2023-03-22T07:29:19.994Z,17.20
2023-03-22T07:30:22.766Z,14.80
2023-03-22T07:31:26.070Z,16.80
2023-03-22T07:32:33.545Z,18.90
2023-03-22T07:33:45.354Z,14.20
2023-03-22T07:34:48.154Z,15.10
2023-03-22T07:35:52.761Z,16.10
2023-03-22T07:36:57.055Z,16.10
2023-03-22T07:38:00.921Z,15.30
2023-03-22T07:39:08.697Z,14.60
2023-03-22T07:40:15.646Z,15.20
2023-03-22T07:41:18.721Z,15.80
2023-03-22T07:42:38.865Z,14.60
2023-03-22T07:44:07.916Z,15.70
2023-03-22T07:45:23.792Z,15.20
2023-03-22T07:46:45.142Z,13.40
2023-03-22T07:47:58.049Z,15.60
2023-03-22T07:49:33.053Z,15.20
2023-03-22T07:50:59.180Z,14.80
2023-03-22T07:52:02.120Z,13.80
2023-03-22T07:53:05.059Z,15.50
2023-03-22T07:54:07.993Z,13.90
2023-03-22T07:55:13.001Z,16.20
2023-03-22T07:56:15.770Z,14.70
2023-03-22T07:57:18.594Z,16.60
2023-03-22T07:58:30.735Z,14.50
2023-03-22T07:59:34.117Z,13.40
2023-03-22T08:00:37.814Z,18.00
2023-03-22T08:02:03.979Z,15.50
2023-03-22T08:03:14.882Z,14.50
2023-03-22T08:04:55.026Z,19.80
2023-03-22T08:06:21.523Z,14.30
2023-03-22T08:07:27.875Z,13.10
2023-03-22T08:08:30.701Z,17.40
2023-03-22T08:09:33.663Z,12.40
2023-03-22T08:10:37.081Z,11.50
2023-03-22T08:11:40.522Z,13.00
2023-03-22T08:12:43.722Z,14.20
2023-03-22T08:13:55.349Z,11.80
2023-03-22T08:14:58.570Z,14.00
2023-03-22T08:16:02.143Z,14.30
2023-03-22T08:17:06.173Z,12.70
2023-03-22T08:18:09.093Z,10.40
2023-03-22T08:19:15.505Z,19.60
2023-03-22T08:20:18.912Z,15.40
2023-03-22T08:21:27.473Z,13.80
2023-03-22T08:22:31.282Z,17.60
2023-03-22T08:23:53.359Z,13.20
2023-03-22T08:25:19.801Z,15.80
2023-03-22T08:26:23.390Z,13.90
2023-03-22T08:27:27.559Z,13.00
2023-03-22T08:28:30.589Z,12.40
2023-03-22T08:29:33.980Z,11.60
2023-03-22T08:30:38.734Z,12.50
2023-03-22T08:31:42.430Z,11.50
2023-03-22T08:32:46.480Z,14.50
2023-03-22T08:33:49.949Z,13.40
2023-03-22T08:34:52.908Z,36.20
2023-03-22T08:36:25.695Z,14.20
2023-03-22T08:37:34.028Z,12.10
2023-03-22T08:38:37.692Z,13.80
2023-03-22T08:39:43.511Z,15.10
2023-03-22T08:41:05.131Z,12.70
2023-03-22T08:42:07.963Z,12.20
2023-03-22T08:43:11.726Z,12.50
2023-03-22T08:44:14.569Z,13.70
2023-03-22T08:45:17.702Z,19.00
2023-03-22T08:46:26.487Z,14.10
2023-03-22T08:47:30.178Z,16.00
2023-03-22T08:48:38.056Z,14.80
2023-03-22T08:49:45.877Z,13.10
2023-03-22T08:50:54.916Z,22.40
2023-03-22T08:52:07.847Z,17.00
2023-03-22T08:53:18.248Z,25.10
2023-03-22T08:54:28.254Z,19.40
2023-03-22T08:55:45.008Z,19.70
2023-03-22T08:56:48.339Z,16.40
2023-03-22T08:58:01.528Z,13.90
2023-03-22T08:59:24.744Z,14.10
2023-03-22T09:00:47.794Z,14.70
2023-03-22T09:02:06.640Z,17.30
2023-03-22T09:03:09.538Z,13.60
2023-03-22T09:04:13.422Z,13.30
2023-03-22T09:05:16.676Z,13.60
2023-03-22T09:06:19.762Z,13.70
2023-03-22T09:07:22.823Z,13.70
2023-03-22T09:08:33.968Z,15.00
2023-03-22T09:09:41.660Z,15.70
2023-03-22T09:10:47.878Z,13.20
2023-03-22T09:11:50.927Z,12.80
2023-03-22T09:12:53.876Z,14.20
2023-03-22T09:13:56.752Z,15.70
2023-03-22T09:14:59.586Z,12.80
2023-03-22T09:16:04.250Z,14.40
2023-03-22T09:17:09.062Z,13.50
2023-03-22T09:18:12.278Z,15.80
2023-03-22T09:19:15.516Z,18.00
2023-03-22T09:20:18.807Z,16.80
2023-03-22T09:21:22.429Z,20.80
2023-03-22T09:22:52.677Z,20.30
2023-03-22T09:23:56.528Z,18.70
2023-03-22T09:25:05.053Z,21.80
2023-03-22T09:26:09.500Z,19.70
2023-03-22T09:27:12.598Z,14.10
2023-03-22T09:28:17.180Z,12.70
2023-03-22T09:29:20.604Z,13.30
2023-03-22T09:30:23.829Z,12.70
2023-03-22T09:31:27.001Z,13.10
2023-03-22T09:32:41.079Z,15.60
2023-03-22T09:33:44.196Z,14.70
2023-03-22T09:34:46.952Z,13.40
2023-03-22T09:35:50.097Z,12.90
2023-03-22T09:36:55.738Z,13.70
2023-03-22T09:38:03.585Z,15.30
2023-03-22T09:39:07.655Z,14.70
2023-03-22T09:40:11.870Z,17.50
2023-03-22T09:41:21.913Z,17.40
2023-03-22T09:42:33.015Z,13.90
2023-03-22T09:43:43.636Z,15.50
2023-03-22T09:44:49.782Z,14.80
2023-03-22T09:45:55.737Z,13.20
2023-03-22T09:47:02.201Z,14.90
2023-03-22T09:48:12.242Z,14.60
2023-03-22T09:49:21.282Z,14.30
2023-03-22T09:50:32.432Z,14.00
2023-03-22T09:51:44.843Z,16.80
2023-03-22T09:52:48.384Z,15.30
2023-03-22T09:53:51.127Z,14.80
2023-03-22T09:54:53.945Z,15.50
2023-03-22T09:56:13.908Z,13.60
2023-03-22T09:57:26.319Z,14.00
2023-03-22T09:58:55.180Z,13.70
2023-03-22T10:00:16.821Z,13.00
2023-03-22T10:01:35.238Z,14.20
2023-03-22T10:03:05.368Z,13.40
2023-03-22T10:04:19.031Z,15.10
2023-03-22T10:05:36.088Z,16.00
2023-03-22T10:06:43.309Z,16.10
2023-03-22T10:08:04.289Z,13.40
2023-03-22T10:09:19.437Z,14.80
2023-03-22T10:10:24.583Z,12.80
2023-03-22T10:11:47.232Z,13.50
2023-03-22T10:13:15.392Z,13.10
2023-03-22T10:14:41.566Z,14.10
2023-03-22T10:15:51.572Z,13.00
2023-03-22T10:16:56.611Z,14.50
2023-03-22T10:18:02.361Z,14.40
2023-03-22T10:19:24.244Z,13.90
2023-03-22T10:20:35.878Z,15.30
2023-03-22T10:21:39.092Z,12.60
2023-03-22T10:22:46.231Z,13.40
2023-03-22T10:24:04.402Z,16.70
2023-03-22T10:25:08.746Z,11.10
2023-03-22T10:26:26.404Z,17.30
2023-03-22T10:27:31.635Z,12.60
2023-03-22T10:28:34.351Z,12.20
2023-03-22T10:29:40.964Z,12.90
2023-03-22T10:30:51.017Z,11.70
2023-03-22T10:31:54.517Z,12.10
2023-03-22T10:33:01.769Z,11.90
2023-03-22T10:34:11.536Z,11.40
2023-03-22T10:35:15.997Z,11.80
2023-03-22T10:36:23.583Z,12.80
2023-03-22T10:37:35.828Z,11.60
2023-03-22T10:38:47.072Z,15.90
2023-03-22T10:39:54.366Z,13.40
2023-03-22T10:40:59.249Z,12.50
2023-03-22T10:42:05.924Z,12.20
2023-03-22T10:43:12.002Z,12.10
2023-03-22T10:44:17.390Z,12.00
2023-03-22T10:45:21.450Z,11.90
2023-03-22T10:46:33.509Z,11.90
2023-03-22T10:47:48.643Z,13.00
2023-03-22T10:48:57.301Z,11.90
2023-03-22T10:50:04.720Z,12.00
2023-03-22T10:51:08.383Z,10.60
2023-03-22T10:52:28.641Z,12.00
2023-03-22T10:53:46.017Z,11.50
2023-03-22T10:54:48.880Z,16.30
2023-03-22T10:55:51.730Z,13.00
2023-03-22T10:56:54.641Z,13.90
2023-03-22T10:58:16.614Z,10.70
2023-03-22T10:59:47.548Z,13.60
2023-03-22T11:00:57.177Z,12.70
2023-03-22T11:02:01.763Z,14.10
2023-03-22T11:03:07.143Z,11.50
2023-03-22T11:04:15.196Z,13.20
2023-03-22T11:05:30.035Z,13.10
2023-03-22T11:06:38.556Z,15.50
2023-03-22T11:07:45.288Z,11.90
2023-03-22T11:09:02.724Z,14.40
2023-03-22T11:10:08.000Z,12.50
2023-03-22T11:11:23.623Z,12.70
2023-03-22T11:12:26.438Z,11.40
2023-03-22T11:13:29.425Z,13.30
2023-03-22T11:14:37.647Z,11.00
2023-03-22T11:15:49.139Z,15.20
2023-03-22T11:16:51.991Z,12.40
2023-03-22T11:18:00.535Z,12.20
2023-03-22T11:19:03.851Z,11.50
2023-03-22T11:20:07.923Z,13.40
2023-03-22T11:21:12.649Z,13.70
2023-03-22T11:22:36.448Z,12.60
2023-03-22T11:23:46.877Z,12.40
2023-03-22T11:24:51.616Z,11.40
2023-03-22T11:25:59.220Z,12.80
2023-03-22T11:27:20.060Z,11.70
2023-03-22T11:28:31.754Z,10.70
2023-03-22T11:29:48.333Z,11.30
2023-03-22T11:31:04.164Z,11.30
2023-03-22T11:32:26.516Z,11.40
2023-03-22T11:33:29.961Z,12.80
2023-03-22T11:34:32.723Z,13.30
2023-03-22T11:35:38.881Z,11.50
2023-03-22T11:37:53.886Z,12.30
2023-03-22T11:39:02.466Z,10.80
2023-03-22T11:40:10.867Z,10.70
2023-03-22T11:41:13.582Z,13.50
2023-03-22T11:42:20.974Z,11.50
2023-03-22T11:43:28.139Z,10.10
2023-03-22T11:44:37.887Z,13.70
2023-03-22T11:45:43.344Z,11.70
2023-03-22T11:46:57.910Z,12.50
2023-03-22T11:48:03.582Z,11.30
2023-03-22T11:49:14.834Z,11.30
2023-03-22T11:50:30.380Z,11.10
2023-03-22T11:51:37.281Z,13.60
2023-03-22T11:52:40.024Z,12.60
2023-03-22T11:53:47.408Z,13.40
2023-03-22T11:54:51.238Z,11.10
2023-03-22T11:55:57.105Z,12.10
2023-03-22T11:57:04.495Z,13.50
2023-03-22T11:58:07.297Z,10.70
2023-03-22T11:59:16.659Z,11.20
2023-03-22T12:00:23.733Z,11.00
2023-03-22T12:01:38.931Z,11.60
2023-03-22T12:02:51.224Z,12.80
2023-03-22T12:03:58.076Z,14.60
2023-03-22T12:05:03.808Z,11.10
2023-03-22T12:06:22.887Z,10.40
2023-03-22T12:07:28.417Z,10.80
2023-03-22T12:08:42.872Z,13.50
2023-03-22T12:09:54.523Z,12.20
2023-03-22T12:11:07.025Z,11.90
2023-03-22T12:12:16.700Z,11.90
2023-03-22T12:13:27.048Z,11.60
2023-03-22T12:14:46.757Z,12.30
2023-03-22T12:15:56.554Z,12.90
2023-03-22T12:17:11.790Z,11.50
2023-03-22T12:18:34.431Z,11.50
2023-03-22T12:20:12.869Z,9.70
2023-03-22T12:21:16.702Z,9.90
2023-03-22T12:22:32.712Z,11.80
2023-03-22T12:23:35.941Z,12.00
2023-03-22T12:24:38.741Z,11.00
2023-03-22T12:25:46.691Z,9.70
2023-03-22T12:26:52.914Z,9.80
2023-03-22T12:28:07.201Z,8.90
2023-03-22T12:29:18.324Z,8.70
2023-03-22T12:30:25.680Z,9.80
2023-03-22T12:31:37.489Z,9.10
2023-03-22T12:32:45.271Z,12.70
2023-03-22T12:33:51.547Z,11.40
2023-03-22T12:35:09.248Z,11.20
2023-03-22T12:36:23.908Z,9.00
2023-03-22T12:37:34.931Z,9.70
2023-03-22T12:38:43.625Z,14.50
2023-03-22T12:39:51.908Z,11.60
2023-03-22T12:40:57.971Z,13.10
2023-03-22T12:42:13.437Z,13.80
2023-03-22T12:43:27.902Z,13.00
2023-03-22T12:44:39.298Z,11.30
2023-03-22T12:45:56.066Z,11.10
2023-03-22T12:47:01.331Z,9.50
2023-03-22T12:48:16.998Z,12.40
2023-03-22T12:49:44.657Z,10.70
2023-03-22T12:50:53.220Z,12.80
2023-03-22T12:52:06.497Z,9.80
2023-03-22T12:53:15.370Z,12.90
2023-03-22T12:54:23.027Z,11.30
2023-03-22T12:55:30.805Z,11.10
2023-03-22T12:56:40.277Z,12.60
2023-03-22T12:58:54.709Z,11.10
2023-03-22T13:00:05.365Z,11.60
2023-03-22T13:01:33.553Z,10.80
2023-03-22T13:02:37.110Z,14.80
2023-03-22T13:03:52.667Z,11.70
2023-03-22T13:05:00.939Z,16.40
2023-03-22T13:06:26.066Z,10.40
2023-03-22T13:07:31.678Z,10.90
2023-03-22T13:09:16.070Z,11.10
2023-03-22T13:10:31.426Z,16.40
2023-03-22T13:11:34.940Z,13.70
2023-03-22T13:12:37.893Z,12.90
2023-03-22T13:13:43.541Z,10.50
2023-03-22T13:14:49.742Z,10.20
2023-03-22T13:16:13.474Z,13.20
2023-03-22T13:17:22.848Z,11.10
2023-03-22T13:18:38.712Z,12.70
2023-03-22T13:19:57.186Z,9.90
2023-03-22T13:21:19.289Z,9.70
2023-03-22T13:22:36.436Z,10.30
2023-03-22T13:23:54.666Z,11.20
2023-03-22T13:25:13.492Z,9.30
2023-03-22T13:26:19.084Z,12.40
2023-03-22T13:27:22.324Z,10.80
2023-03-22T13:28:26.856Z,11.50
2023-03-22T13:29:32.731Z,8.90
2023-03-22T13:30:58.114Z,9.60
2023-03-22T13:32:04.286Z,9.00
2023-03-22T13:33:10.391Z,11.30
2023-03-22T13:34:18.193Z,10.30
2023-03-22T13:35:27.985Z,10.70
2023-03-22T13:36:32.235Z,9.00
2023-03-22T13:37:46.000Z,12.30
2023-03-22T13:38:56.329Z,10.80
2023-03-22T13:40:02.363Z,10.70
2023-03-22T13:41:24.645Z,9.40
2023-03-22T13:42:38.005Z,11.50
2023-03-22T13:43:44.244Z,10.70
2023-03-22T13:44:57.067Z,11.30
2023-03-22T13:46:17.959Z,10.70
2023-03-22T13:47:45.948Z,12.60
2023-03-22T13:48:49.476Z,10.20
2023-03-22T13:50:29.069Z,10.00
2023-03-22T13:51:32.747Z,11.50
2023-03-22T13:52:40.368Z,9.90
2023-03-22T13:53:56.063Z,9.90
2023-03-22T13:54:58.983Z,8.50
2023-03-22T13:56:05.688Z,10.40
2023-03-22T13:57:37.896Z,11.90
2023-03-22T13:58:46.731Z,10.30
2023-03-22T14:00:13.405Z,14.40
2023-03-22T14:01:24.018Z,10.30
2023-03-22T14:02:35.934Z,10.30
2023-03-22T14:03:42.532Z,9.70
2023-03-22T14:05:16.642Z,12.00
2023-03-22T14:06:25.097Z,12.10
2023-03-22T14:07:46.345Z,10.10
2023-03-22T14:08:53.498Z,12.30
2023-03-22T14:10:11.366Z,13.40
2023-03-22T14:11:48.804Z,11.80
2023-03-22T14:13:00.968Z,11.30
2023-03-22T14:14:11.089Z,9.70
2023-03-22T14:15:24.603Z,11.30
2023-03-22T14:16:48.795Z,9.40
2023-03-22T14:17:59.431Z,9.20
2023-03-22T14:19:05.625Z,10.90
2023-03-22T14:20:15.762Z,11.60
2023-03-22T14:21:23.545Z,10.90
